Edmore, Michigan
Current Conditions -  °F | °C
As of 5:35 PM on Monday 26 Jan 2015 (Local Time) from KAMN Reporting Station
Clear Clear  
Wind Chill: 11°   Ceiling: Unl
Heat Index: 18°   Visibility: 10mi
Dew Point: 10°   Wind: 5mph
Humidity: 70%   Direction: 80°E
Pressure: 29.93"   Gusts: NA
Location:  43.41°N, 85.04°W
Report Text: KAMN 262235Z AUTO 08004KT 10SM CLR M08/M12 A2993 RMK AO2 T10781125
Loading
Personal Weather Stations






























Interactive Weather Map New forecast layout! Learn more

10-Day Weather Forecast

Advertisements
Track Severe Weather on mobile